CST,Max TemperatureF,Mean TemperatureF,Min TemperatureF,Max Dew PointF,MeanDew PointF,Min DewpointF,Max Humidity, Mean Humidity, Min Humidity, Max Sea Level PressureIn, Mean Sea Level PressureIn, Min Sea Level PressureIn, Max VisibilityMiles, Mean VisibilityMiles, Min VisibilityMiles, Max Wind SpeedMPH, Mean Wind SpeedMPH, Max Gust SpeedMPH,PrecipitationIn, CloudCover, Events, WindDirDegrees
2013-1-1,35,30,24,36,32,20,100,94,75,30.26,30.12,30.03,9,4,0,7,2,,0.00,7,Fog-Rain-Snow,10
2013-1-2,33,26,19,24,20,15,93,83,64,30.29,30.26,30.22,9,6,3,5,1,,0.00,2,,182
2013-1-3,42,33,24,28,24,20,92,73,47,30.43,30.37,30.26,10,8,4,6,2,,0.00,1,,294
2013-1-4,44,34,24,28,21,18,92,64,35,30.49,30.41,30.34,10,9,5,6,3,,0.00,0,,203
2013-1-5,46,38,30,30,27,23,79,63,46,30.34,30.27,30.19,10,10,8,10,3,16,0.00,6,,207
2013-1-6,46,40,30,31,23,17,85,59,37,30.38,30.30,30.21,10,9,8,9,5,20,0.00,0,,319
2013-1-7,48,36,24,26,23,18,88,64,39,30.42,30.30,30.17,10,9,7,8,4,,0.00,0,,133
2013-1-8,55,42,28,37,30,23,82,60,40,30.22,30.16,30.09,10,10,7,9,5,,0.00,4,,145
2013-1-9,55,50,44,45,41,36,100,75,54,30.38,30.30,30.23,10,8,6,13,3,20,0.04,5,Rain,67
2013-1-10,53,48,42,54,49,40,100,99,82,30.27,29.95,29.82,10,2,0,12,6,26,0.40,7,Fog-Rain,93
2013-1-11,64,54,43,48,45,42,100,81,50,29.92,29.87,29.81,10,10,9,12,7,16,0.00,1,,182
2013-1-12,57,44,32,52,46,32,100,93,72,29.90,29.83,29.75,10,6,2,13,5,18,1.20,6,Rain-Thunderstorm,9
2013-1-13,33,26,19,33,23,16,100,82,66,30.37,30.14,29.90,10,9,6,9,7,22,0.00,5,,331
2013-1-14,28,21,14,15,12,9,88,71,45,30.49,30.40,30.36,10,9,6,7,3,,0.00,2,,354
2013-1-15,28,22,17,21,17,11,86,78,66,30.35,30.26,30.18,10,6,0,7,3,,0.01,5,Fog-Snow,7
2013-1-16,43,31,19,23,18,14,96,70,31,30.22,30.16,30.10,10,8,2,5,2,,0.00,1,,305
2013-1-17,,,,,,,,,,,,,,,,,,,0.00,,,-1
2013-1-18,,,,,,,,,,,,,,,,,,,,,,
2013-1-19,,,,,,,,,,,,,,,,,,,,,,
2013-1-20,,,,,,,,,,,,,,,,,,,,,,
2013-1-21,,,,,,,,,,,,,,,,,,,,,,
2013-1-22,,,,,,,,,,,,,,,,,,,,,,
2013-1-23,57,44,32,39,33,21,71,57,46,30.30,30.20,30.14,10,9,8,5,1,,0.00,0,,348
2013-1-24,39,33,27,24,14,9,69,50,40,30.43,30.33,30.20,10,10,8,13,8,16,0.00,8,,90
2013-1-25,46,36,27,30,26,18,89,73,51,30.26,30.18,30.11,9,6,3,7,2,,0.00,5,,287
2013-1-26,55,42,30,31,26,20,92,56,25,30.32,30.26,30.22,10,9,6,10,3,,0.00,3,,133
2013-1-27,55,48,41,54,43,30,100,86,60,30.20,30.09,29.99,10,5,2,12,8,,0.05,8,Rain,137
2013-1-28,73,64,55,59,58,54,94,77,53,30.01,29.95,29.87,10,9,8,16,9,25,0.00,6,,192
2013-1-29,66,58,51,61,57,52,100,91,76,29.86,29.62,29.45,10,6,1,18,11,29,0.71,8,Rain-Thunderstorm,193
2013-1-30,51,40,28,51,31,18,100,78,60,30.04,29.69,29.44,10,9,6,17,8,34,0.59,7,Rain,287
2013-1-31,50,36,19,24,18,6,88,61,35,30.40,30.15,30.02,10,10,8,13,6,24,0.03,1,,309